Time;durP1;ratioP1;P1;durP2;ratioP2;P2;SDS_P1;SDS_P2;PMS_P1;PMS_P2;Temp;Humidity;BMP_temperature;BMP_pressure;BME280_temperature;BME280_humidity;BME280_pressure;Samples;Min_cycle;Max_cycle;Signal;HPM_P1;HPM_P2
2021/12/24 00:00:45;;;;;;;95.65;37.47;;;7.90;99.90;;;;;;5093480;28;20496;-77
2021/12/24 00:03:11;;;;;;;99.20;37.20;;;7.80;99.90;;;;;;5093468;28;20210;-77
2021/12/24 00:05:37;;;;;;;95.60;38.60;;;7.90;99.90;;;;;;5093433;28;20028;-76
2021/12/24 00:08:03;;;;;;;92.47;36.35;;;7.90;99.90;;;;;;5093483;28;20040;-77
2021/12/24 00:10:32;;;;;;;93.22;37.13;;;7.90;99.90;;;;;;5093212;28;20032;-76
2021/12/24 00:13:02;;;;;;;98.60;36.08;;;;;;;;;;5093047;28;20027;-76
2021/12/24 00:37:19;;;;;;;91.55;34.22;;;8.10;99.90;;;;;;5093429;28;20034;-76
2021/12/24 00:39:56;;;;;;;84.15;32.58;;;8.10;99.90;;;;;;5092712;28;20020;-76
2021/12/24 00:42:21;;;;;;;66.40;29.20;;;8.10;99.90;;;;;;5092891;28;20024;-77
2021/12/24 00:44:47;;;;;;;60.97;27.90;;;8.10;99.90;;;;;;5092765;28;20028;-76
2021/12/24 00:47:12;;;;;;;61.67;26.90;;;8.10;99.90;;;;;;5092604;28;20078;-76
2021/12/24 00:49:39;;;;;;;61.47;27.63;;;8.20;99.90;;;;;;5085142;28;20086;-76
2021/12/24 00:55:06;;;;;;;53.33;26.13;;;8.20;99.90;;;;;;5009957;28;20099;-76
2021/12/24 00:57:38;;;;;;;61.10;28.13;;;8.20;99.90;;;;;;5010471;28;20044;-76
2021/12/24 01:00:15;;;;;;;58.08;27.48;;;8.30;99.90;;;;;;5009690;28;20038;-76
2021/12/24 01:02:41;;;;;;;72.88;30.10;;;8.30;99.90;;;;;;4973893;28;20481;-77
2021/12/24 01:05:08;;;;;;;65.47;29.33;;;8.30;99.90;;;;;;4990553;28;20406;-76
2021/12/24 01:07:33;;;;;;;60.58;28.08;;;8.30;99.90;;;;;;4990784;28;20034;-77
2021/12/24 01:09:59;;;;;;;72.07;30.40;;;8.40;99.90;;;;;;4990699;28;20061;-76
2021/12/24 01:12:25;;;;;;;62.53;28.92;;;8.50;99.90;;;;;;4990891;28;20121;-76
2021/12/24 01:14:51;;;;;;;62.83;31.02;;;8.40;99.90;;;;;;4990566;28;20124;-77
2021/12/24 01:19:46;;;;;;;63.85;29.20;;;8.40;99.90;;;;;;5009999;28;20068;-76
2021/12/24 01:27:53;;;;;;;69.57;29.33;;;8.50;99.90;;;;;;5030080;28;20435;-76
2021/12/24 01:38:20;;;;;;;58.47;28.75;;;8.50;99.90;;;;;;5075355;28;20071;-76
2021/12/24 01:43:19;;;;;;;60.00;27.83;;;8.60;99.90;;;;;;5076016;28;20029;-76
2021/12/24 01:45:47;;;;;;;57.38;26.98;;;8.60;99.90;;;;;;5075749;28;20324;-76
2021/12/24 01:48:13;;;;;;;57.33;27.67;;;8.70;99.90;;;;;;5075756;28;20035;-77
2021/12/24 01:50:42;;;;;;;67.47;29.63;;;8.70;99.90;;;;;;5091205;28;20024;-76
2021/12/24 01:53:08;;;;;;;83.20;31.05;;;8.60;99.90;;;;;;5095920;28;20024;-76
2021/12/24 01:55:36;;;;;;;70.38;28.77;;;8.70;99.90;;;;;;5077457;28;20067;-76
2021/12/24 01:58:01;;;;;;;74.47;29.95;;;8.70;99.90;;;;;;5096037;28;20036;-77
2021/12/24 02:00:37;;;;;;;74.05;32.38;;;8.80;99.90;;;;;;5095692;28;20074;-76
2021/12/24 02:03:04;;;;;;;98.82;34.58;;;8.70;99.90;;;;;;5095646;28;20032;-77
2021/12/24 02:05:31;;;;;;;75.40;31.02;;;8.80;99.90;;;;;;5095693;28;20028;-76
2021/12/24 02:07:57;;;;;;;84.38;31.77;;;8.80;99.90;;;;;;5095849;28;20028;-76
2021/12/24 02:10:23;;;;;;;84.45;33.80;;;8.90;99.90;;;;;;5095783;28;20390;-76
2021/12/24 02:12:50;;;;;;;91.68;36.22;;;8.90;99.90;;;;;;5095812;28;20036;-76
2021/12/24 02:28:46;;;;;;;101.03;37.67;;;9.00;99.90;;;;;;5095224;28;20035;-76
2021/12/24 02:31:16;;;;;;;123.00;41.03;;;9.10;99.90;;;;;;5095232;28;20382;-76
2021/12/24 02:33:42;;;;;;;92.00;36.53;;;9.10;99.90;;;;;;5077063;28;20085;-76
2021/12/24 02:36:09;;;;;;;105.25;39.45;;;9.10;99.90;;;;;;5095351;28;20020;-76
2021/12/24 02:38:34;;;;;;;103.45;39.83;;;9.20;99.90;;;;;;5095089;28;20024;-76
2021/12/24 02:41:01;;;;;;;102.78;40.28;;;9.30;99.90;;;;;;5095040;28;20031;-76
2021/12/24 02:43:27;;;;;;;96.28;39.58;;;9.30;99.90;;;;;;5095239;28;20478;-76
2021/12/24 02:45:57;;;;;;;112.53;43.45;;;9.30;99.90;;;;;;5095125;28;20036;-76
2021/12/24 02:53:58;;;;;;;91.03;39.38;;;9.40;99.90;;;;;;5074721;28;20394;-76
2021/12/24 02:56:53;;;;;;;82.97;39.15;;;9.50;99.90;;;;;;5074683;28;20016;-76
2021/12/24 02:59:25;;;;;;;101.35;40.25;;;9.50;99.90;;;;;;5072745;28;20035;-76
2021/12/24 03:01:53;;;;;;;81.95;37.25;;;9.50;99.90;;;;;;5074654;28;20028;-76
2021/12/24 03:04:19;;;;;;;81.00;36.15;;;9.50;99.90;;;;;;5074431;28;20548;-76
2021/12/24 03:06:47;;;;;;;85.47;37.92;;;9.60;99.90;;;;;;5074530;28;20060;-76
2021/12/24 03:09:16;;;;;;;77.57;36.60;;;9.60;99.90;;;;;;5074701;28;20048;-76
2021/12/24 03:11:42;;;;;;;82.45;36.10;;;9.60;99.90;;;;;;5074344;28;20057;-76
2021/12/24 03:14:10;;;;;;;80.05;35.17;;;9.60;99.90;;;;;;5074148;28;20039;-76
2021/12/24 03:16:37;;;;;;;65.50;29.80;;;9.70;99.90;;;;;;5074192;28;20020;-76
2021/12/24 03:19:04;;;;;;;71.30;30.73;;;9.70;99.90;;;;;;5073893;28;20047;-76
2021/12/24 03:21:37;;;;;;;63.08;24.38;;;9.80;99.90;;;;;;5091072;28;20020;-76
2021/12/24 03:26:34;;;;;;;65.15;26.80;;;9.80;99.90;;;;;;5094428;28;20423;-76
2021/12/24 03:28:59;;;;;;;61.17;24.85;;;9.80;99.90;;;;;;5094177;28;20033;-76
2021/12/24 03:31:25;;;;;;;51.60;26.02;;;9.80;99.90;;;;;;5093967;28;20389;-76
2021/12/24 03:33:53;;;;;;;48.72;22.25;;;9.80;99.90;;;;;;5094060;28;20024;-76
2021/12/24 03:36:20;;;;;;;48.85;23.40;;;9.80;99.90;;;;;;5093989;28;20485;-76
2021/12/24 03:38:47;;;;;;;52.00;23.40;;;9.80;99.90;;;;;;5093915;28;20031;-76
2021/12/24 03:41:13;;;;;;;45.47;20.25;;;9.80;99.90;;;;;;5094026;28;20055;-76
2021/12/24 03:43:39;;;;;;;52.90;21.85;;;9.90;99.90;;;;;;5094130;28;20020;-76
2021/12/24 03:46:08;;;;;;;46.03;20.63;;;9.80;99.90;;;;;;5093985;28;20074;-76
2021/12/24 03:51:37;;;;;;;55.70;23.73;;;9.80;99.90;;;;;;5074646;28;20114;-76
2021/12/24 03:56:47;;;;;;;43.83;20.63;;;9.80;99.90;;;;;;5073911;28;20078;-76
2021/12/24 03:59:13;;;;;;;46.65;19.88;;;9.80;99.90;;;;;;5073260;28;20020;-76
2021/12/24 04:01:40;;;;;;;50.78;21.85;;;9.90;99.90;;;;;;5072537;28;20021;-76
2021/12/24 04:04:07;;;;;;;47.33;20.88;;;9.80;99.90;;;;;;5073553;28;20735;-77
2021/12/24 04:06:33;;;;;;;45.47;20.90;;;9.70;99.90;;;;;;5073210;28;20429;-76
2021/12/24 04:08:59;;;;;;;49.08;21.35;;;9.80;99.90;;;;;;5073458;28;20028;-76
2021/12/24 04:11:24;;;;;;;43.47;19.75;;;9.80;99.90;;;;;;5073283;28;20033;-76
2021/12/24 04:13:50;;;;;;;45.72;20.23;;;9.80;99.90;;;;;;5072836;28;20042;-76
2021/12/24 04:16:16;;;;;;;40.92;19.75;;;9.70;99.90;;;;;;5073071;28;20023;-76
2021/12/24 04:26:42;;;;;;;50.28;21.65;;;9.70;99.90;;;;;;5093232;28;20389;-76
2021/12/24 04:29:08;;;;;;;52.90;21.23;;;9.70;99.90;;;;;;5104441;28;20024;-76
2021/12/24 04:34:33;;;;;;;48.00;21.00;;;9.70;99.90;;;;;;5010648;28;20034;-76
2021/12/24 05:01:22;;;;;;;47.13;19.50;;;9.50;99.90;;;;;;5006049;28;20029;-76
2021/12/24 05:03:48;;;;;;;36.08;19.20;;;9.50;99.90;;;;;;5007320;28;20030;-76
2021/12/24 05:11:15;;;;;;;34.17;17.67;;;9.60;99.90;;;;;;5064218;28;20082;-76
2021/12/24 05:13:41;;;;;;;48.38;17.30;;;9.60;99.90;;;;;;5092527;28;20048;-76
2021/12/24 05:16:22;;;;;;;44.63;19.02;;;9.60;99.90;;;;;;5092710;28;20034;-76
2021/12/24 05:21:33;;;;;;;37.85;15.88;;;9.60;99.90;;;;;;5092446;28;20027;-77
2021/12/24 05:24:20;;;;;;;39.08;15.05;;;9.60;99.90;;;;;;5092396;28;20095;-76
2021/12/24 05:26:52;;;;;;;37.33;15.32;;;9.60;99.90;;;;;;5092603;28;20038;-76
2021/12/24 05:29:18;;;;;;;35.05;15.30;;;9.60;99.90;;;;;;5088221;28;20091;-77
2021/12/24 05:31:45;;;;;;;37.17;14.02;;;9.60;99.90;;;;;;5073161;28;20031;-77
2021/12/24 05:34:14;;;;;;;35.25;15.10;;;;;;;;;;5091499;28;20067;-76
2021/12/24 05:36:40;;;;;;;34.63;14.65;;;;;;;;;;5100919;28;20020;-76
2021/12/24 05:39:08;;;;;;;39.88;14.48;;;;;;;;;;5097773;28;20020;-76
2021/12/24 05:41:34;;;;;;;30.45;11.90;;;;;;;;;;5098910;28;20012;-76
2021/12/24 05:44:02;;;;;;;37.63;12.13;;;9.50;99.90;;;;;;5104337;28;20509;-76
2021/12/24 05:46:28;;;;;;;35.83;12.20;;;9.60;99.90;;;;;;5100921;28;20111;-76
2021/12/24 05:48:54;;;;;;;34.00;11.95;;;9.60;99.90;;;;;;5098549;28;20086;-76
2021/12/24 05:51:20;;;;;;;28.17;10.73;;;;;;;;;;5095727;28;20054;-76
2021/12/24 05:53:46;;;;;;;38.67;12.68;;;;;;;;;;5099534;28;20060;-76
2021/12/24 05:56:12;;;;;;;29.45;11.43;;;;;;;;;;5100815;28;20850;-76
2021/12/24 05:58:38;;;;;;;31.65;11.23;;;;;;;;;;5103705;28;20774;-76
2021/12/24 06:01:04;;;;;;;30.42;10.07;;;;;;;;;;5098012;28;20028;-76
2021/12/24 06:03:30;;;;;;;26.80;10.13;;;;;;;;;;5100978;28;20027;-76
2021/12/24 06:05:56;;;;;;;34.83;10.85;;;;;;;;;;5102153;28;20016;-76
2021/12/24 06:08:22;;;;;;;30.83;10.45;;;9.40;99.90;;;;;;5102920;28;20028;-76
2021/12/24 06:10:47;;;;;;;32.90;9.98;;;9.50;99.90;;;;;;5106393;28;20473;-76
2021/12/24 06:13:13;;;;;;;34.58;10.18;;;9.40;99.90;;;;;;5097569;28;20046;-77
2021/12/24 06:15:44;;;;;;;27.58;9.85;;;9.40;99.90;;;;;;5100186;28;20023;-76
2021/12/24 06:18:18;;;;;;;26.15;10.35;;;9.40;99.90;;;;;;5102904;28;20071;-76
2021/12/24 06:20:43;;;;;;;23.75;10.15;;;9.40;99.90;;;;;;5098631;28;20152;-76
2021/12/24 06:23:09;;;;;;;27.25;8.57;;;9.40;99.90;;;;;;5100143;28;20463;-76
2021/12/24 06:25:35;;;;;;;23.48;8.20;;;9.40;99.90;;;;;;5109431;28;20019;-76
2021/12/24 06:28:01;;;;;;;24.13;8.65;;;9.30;99.90;;;;;;5106172;28;20099;-76
2021/12/24 06:30:29;;;;;;;23.90;7.93;;;9.30;99.90;;;;;;5112858;28;20107;-76
2021/12/24 06:32:56;;;;;;;31.10;8.95;;;9.30;99.90;;;;;;5108712;28;20051;-76
2021/12/24 06:35:24;;;;;;;26.17;9.02;;;9.30;99.90;;;;;;5105981;28;20024;-76
2021/12/24 06:37:50;;;;;;;26.88;8.50;;;9.20;99.90;;;;;;5104105;28;20020;-76
2021/12/24 06:40:15;;;;;;;30.30;8.50;;;9.20;99.90;;;;;;5100119;28;20024;-76
2021/12/24 06:42:41;;;;;;;27.95;8.60;;;9.20;99.90;;;;;;5082674;28;20052;-77
2021/12/24 06:45:07;;;;;;;33.28;9.02;;;9.30;99.90;;;;;;5095409;28;20028;-77
2021/12/24 06:47:32;;;;;;;20.50;8.32;;;9.20;99.90;;;;;;5095584;28;20380;-77
2021/12/24 06:49:58;;;;;;;36.95;9.13;;;9.20;99.90;;;;;;5092149;28;20039;-77
2021/12/24 06:52:24;;;;;;;33.38;10.00;;;9.20;99.90;;;;;;5104299;28;20026;-76
2021/12/24 06:54:49;;;;;;;32.13;8.25;;;9.20;99.90;;;;;;5098288;28;20028;-76
2021/12/24 06:57:18;;;;;;;28.90;8.55;;;9.30;99.90;;;;;;5108111;28;20020;-76
2021/12/24 06:59:44;;;;;;;26.65;7.97;;;9.20;99.90;;;;;;5108653;28;20041;-76
2021/12/24 07:02:10;;;;;;;28.65;9.57;;;9.20;99.90;;;;;;5089555;28;20044;-76
2021/12/24 07:04:36;;;;;;;36.65;9.77;;;9.20;99.90;;;;;;5103102;28;20062;-76
2021/12/24 07:07:02;;;;;;;30.33;8.63;;;9.20;99.90;;;;;;5105586;28;20106;-76
2021/12/24 07:09:27;;;;;;;36.45;8.65;;;9.20;99.90;;;;;;5102980;28;20084;-77
2021/12/24 07:11:53;;;;;;;29.17;9.75;;;9.20;99.90;;;;;;5105953;28;20078;-76
2021/12/24 07:14:19;;;;;;;35.60;8.45;;;9.20;99.90;;;;;;5103029;28;20089;-77
2021/12/24 07:16:45;;;;;;;39.72;11.23;;;;;;;;;;5105526;28;20024;-76
2021/12/24 07:19:11;;;;;;;38.63;9.20;;;9.20;99.90;;;;;;5099665;28;20036;-76
2021/12/24 07:21:36;;;;;;;27.88;8.55;;;9.10;99.90;;;;;;5093794;28;20027;-76
2021/12/24 07:24:06;;;;;;;26.83;8.15;;;9.20;99.90;;;;;;5104207;28;20076;-77
2021/12/24 07:26:31;;;;;;;35.50;9.07;;;9.20;99.90;;;;;;5104311;28;20030;-76
2021/12/24 07:28:57;;;;;;;32.72;8.70;;;9.10;99.90;;;;;;5106388;28;20498;-76
2021/12/24 07:31:23;;;;;;;33.20;9.80;;;9.10;99.90;;;;;;5109547;28;20031;-77
2021/12/24 07:33:48;;;;;;;32.50;8.82;;;9.10;99.90;;;;;;5108885;28;20124;-77
2021/12/24 07:36:14;;;;;;;35.42;9.10;;;9.10;99.90;;;;;;5111742;28;20024;-77
2021/12/24 07:38:40;;;;;;;34.78;9.38;;;9.10;99.90;;;;;;5107058;28;20024;-77
2021/12/24 07:41:06;;;;;;;29.63;9.93;;;9.10;99.90;;;;;;5102688;28;20435;-77
2021/12/24 07:43:33;;;;;;;35.70;10.13;;;9.10;99.90;;;;;;5109091;28;20026;-77
2021/12/24 07:45:58;;;;;;;30.73;10.25;;;9.10;99.90;;;;;;5109284;28;20103;-76
2021/12/24 07:48:28;;;;;;;36.63;10.20;;;9.10;99.90;;;;;;5087053;28;20103;-76
2021/12/24 07:53:22;;;;;;;32.85;10.77;;;9.10;99.90;;;;;;5089863;28;20458;-76
2021/12/24 07:55:48;;;;;;;37.08;10.70;;;9.10;99.90;;;;;;5071480;28;20024;-75
2021/12/24 07:58:15;;;;;;;37.72;11.18;;;9.00;99.90;;;;;;5094808;28;20107;-76
2021/12/24 08:00:41;;;;;;;31.33;11.07;;;9.00;99.90;;;;;;5097327;28;20527;-76
2021/12/24 08:03:07;;;;;;;35.70;11.10;;;9.00;99.90;;;;;;5095861;28;20088;-76
2021/12/24 08:05:39;;;;;;;33.50;10.15;;;8.90;99.90;;;;;;5094151;28;20330;-76
2021/12/24 08:08:05;;;;;;;45.23;11.70;;;9.00;99.90;;;;;;5086779;28;20024;-76
2021/12/24 08:10:33;;;;;;;34.75;10.45;;;9.00;99.90;;;;;;5083282;28;20277;-76
2021/12/24 08:12:59;;;;;;;24.77;9.02;;;9.00;99.90;;;;;;5085360;28;20024;-76
2021/12/24 08:15:25;;;;;;;32.03;9.88;;;9.00;99.90;;;;;;5093293;28;20039;-76
2021/12/24 08:17:51;;;;;;;27.15;9.48;;;9.00;99.90;;;;;;5092140;28;20048;-76
2021/12/24 08:20:22;;;;;;;29.13;9.35;;;8.90;99.90;;;;;;5091469;28;20038;-76
2021/12/24 08:22:49;;;;;;;32.55;9.88;;;9.00;99.90;;;;;;5091698;28;20103;-76
2021/12/24 08:25:15;;;;;;;39.38;10.05;;;8.90;99.90;;;;;;5096413;28;20028;-76
2021/12/24 08:27:41;;;;;;;27.20;9.15;;;9.00;99.90;;;;;;5079259;28;20485;-75
2021/12/24 08:30:08;;;;;;;32.58;10.70;;;8.90;99.90;;;;;;5102650;28;20047;-75
2021/12/24 08:32:37;;;;;;;28.50;8.50;;;9.00;99.90;;;;;;5103532;28;20168;-76
2021/12/24 08:35:05;;;;;;;36.40;8.88;;;9.00;99.90;;;;;;5099846;28;20050;-76
2021/12/24 08:37:31;;;;;;;25.83;9.52;;;9.00;99.90;;;;;;5106831;28;20030;-76
2021/12/24 08:39:56;;;;;;;32.53;10.15;;;8.90;99.90;;;;;;5100382;28;20369;-76
2021/12/24 08:42:22;;;;;;;33.42;11.18;;;9.00;99.90;;;;;;5101674;28;20446;-76
2021/12/24 08:44:48;;;;;;;36.60;10.50;;;9.00;99.90;;;;;;5102320;28;20423;-74
2021/12/24 08:47:13;;;;;;;41.85;10.18;;;9.00;99.90;;;;;;5084759;28;20115;-76
2021/12/24 08:49:39;;;;;;;31.17;9.82;;;9.00;99.90;;;;;;5099403;28;20085;-75
2021/12/24 08:52:05;;;;;;;33.40;10.70;;;9.00;99.90;;;;;;5099994;28;20026;-75
2021/12/24 08:54:30;;;;;;;37.17;11.27;;;9.00;99.90;;;;;;5100769;28;20051;-75
2021/12/24 08:56:56;;;;;;;30.75;10.77;;;8.90;99.90;;;;;;5109955;28;20047;-76
2021/12/24 08:59:23;;;;;;;34.78;10.70;;;9.00;99.90;;;;;;5112603;28;20046;-76
2021/12/24 09:01:52;;;;;;;41.15;11.00;;;8.90;99.90;;;;;;5112572;28;20090;-76
2021/12/24 09:04:19;;;;;;;28.65;11.38;;;8.90;99.90;;;;;;5112002;28;20039;-76
2021/12/24 09:06:45;;;;;;;38.55;12.07;;;8.90;99.90;;;;;;5098517;28;20023;-76
2021/12/24 09:09:11;;;;;;;31.13;10.88;;;8.80;99.90;;;;;;5101204;28;20428;-75
2021/12/24 09:11:39;;;;;;;33.92;11.55;;;8.80;99.90;;;;;;5101110;28;20039;-76
2021/12/24 09:14:05;;;;;;;34.13;11.70;;;8.80;99.90;;;;;;5097419;28;20123;-75
2021/12/24 09:16:33;;;;;;;37.60;11.02;;;8.80;99.90;;;;;;5103040;28;20024;-74
2021/12/24 09:19:07;;;;;;;36.53;11.02;;;8.70;99.90;;;;;;5111384;28;20051;-75
2021/12/24 09:21:33;;;;;;;39.72;12.25;;;8.70;99.90;;;;;;5077612;28;20020;-74
2021/12/24 09:24:01;;;;;;;43.25;12.20;;;8.70;99.90;;;;;;5075180;28;20327;-73
2021/12/24 09:26:29;;;;;;;38.38;13.23;;;8.70;99.90;;;;;;5073954;28;20361;-73
2021/12/24 09:28:59;;;;;;;33.05;13.32;;;8.70;99.90;;;;;;5073986;28;20117;-77
2021/12/24 09:31:25;;;;;;;31.90;11.02;;;8.70;99.90;;;;;;5092433;28;20032;-73
2021/12/24 09:33:52;;;;;;;40.20;12.45;;;8.70;99.90;;;;;;5073957;28;20385;-73
2021/12/24 09:36:25;;;;;;;39.95;12.65;;;8.70;99.90;;;;;;5092045;28;20024;-74
2021/12/24 09:38:56;;;;;;;51.60;12.95;;;8.70;99.90;;;;;;5092080;28;20103;-73
2021/12/24 09:41:24;;;;;;;44.92;13.20;;;8.70;99.90;;;;;;5073921;28;20358;-74
2021/12/24 09:43:51;;;;;;;43.78;13.93;;;8.70;99.90;;;;;;5092346;28;20104;-73
2021/12/24 09:46:16;;;;;;;39.67;13.70;;;8.70;99.90;;;;;;5073867;28;20527;-73
2021/12/24 09:48:42;;;;;;;39.60;13.15;;;8.80;99.90;;;;;;5091874;28;20024;-73
2021/12/24 09:51:08;;;;;;;33.40;13.02;;;8.80;99.90;;;;;;5072220;28;20025;-74
2021/12/24 09:53:36;;;;;;;44.22;14.77;;;8.80;99.90;;;;;;5071982;28;20028;-73
2021/12/24 09:56:03;;;;;;;38.47;13.70;;;8.80;99.90;;;;;;5071642;28;20354;-73
2021/12/24 09:58:29;;;;;;;37.10;14.32;;;8.80;99.90;;;;;;5072268;28;20070;-73
2021/12/24 10:00:55;;;;;;;74.25;17.23;;;8.70;99.90;;;;;;5075342;28;20031;-73
2021/12/24 10:03:29;;;;;;;49.05;16.00;;;8.70;99.90;;;;;;5075484;28;20032;-73
2021/12/24 10:05:55;;;;;;;41.45;15.48;;;8.70;99.90;;;;;;5075534;28;20043;-73
2021/12/24 10:08:23;;;;;;;53.65;17.42;;;8.70;99.90;;;;;;5075671;28;20033;-74
2021/12/24 10:10:52;;;;;;;44.05;15.13;;;8.70;99.90;;;;;;5075334;28;20033;-73
2021/12/24 10:13:29;;;;;;;48.10;15.30;;;8.70;99.90;;;;;;5075269;28;20028;-73
2021/12/24 10:16:01;;;;;;;36.35;14.85;;;8.70;99.90;;;;;;5057063;28;20467;-73
2021/12/24 10:18:39;;;;;;;38.45;14.90;;;8.70;99.90;;;;;;5075103;28;20097;-73
2021/12/24 10:21:07;;;;;;;47.50;15.80;;;8.80;99.90;;;;;;5075045;28;20025;-73
2021/12/24 10:24:00;;;;;;;49.28;14.95;;;8.80;99.90;;;;;;5075041;28;20103;-73
2021/12/24 10:26:50;;;;;;;44.95;14.10;;;8.80;99.90;;;;;;5075131;28;20038;-73
2021/12/24 10:29:31;;;;;;;37.78;14.02;;;8.70;99.90;;;;;;5082158;28;20074;-74
2021/12/24 10:32:14;;;;;;;42.45;13.35;;;8.80;99.90;;;;;;5075464;28;20502;-78
2021/12/24 10:34:42;;;;;;;41.05;14.13;;;8.80;99.90;;;;;;5074708;28;20032;-75
2021/12/24 10:37:13;;;;;;;45.25;13.60;;;8.80;99.90;;;;;;5074908;28;20173;-77
2021/12/24 10:39:42;;;;;;;36.33;13.50;;;8.80;99.90;;;;;;5103508;28;20044;-77
2021/12/24 10:42:15;;;;;;;37.30;13.60;;;8.90;99.90;;;;;;5099855;28;20051;-77
2021/12/24 10:44:43;;;;;;;41.42;13.55;;;8.90;99.90;;;;;;5096103;28;20022;-76
2021/12/24 10:47:18;;;;;;;32.83;12.48;;;9.00;99.90;;;;;;5096368;28;20023;-77
2021/12/24 10:50:04;;;;;;;46.55;14.30;;;9.00;99.90;;;;;;5102585;28;20111;-77
2021/12/24 10:55:18;;;;;;;34.08;13.63;;;9.10;99.90;;;;;;5103962;28;20401;-77
2021/12/24 10:57:46;;;;;;;35.63;13.80;;;9.00;99.90;;;;;;5102795;28;20020;-77
2021/12/24 11:00:38;;;;;;;40.78;14.52;;;9.10;99.90;;;;;;5086798;28;20015;-77
2021/12/24 11:03:11;;;;;;;46.37;14.37;;;9.10;99.90;;;;;;5104835;28;20047;-76
2021/12/24 11:05:46;;;;;;;38.83;13.73;;;9.10;99.90;;;;;;5115101;28;20023;-76
2021/12/24 11:08:20;;;;;;;30.10;13.43;;;9.10;99.90;;;;;;5115139;28;20032;-74
2021/12/24 11:10:54;;;;;;;46.83;15.27;;;9.10;99.90;;;;;;5114281;28;20036;-76
2021/12/24 11:13:33;;;;;;;35.15;12.20;;;9.10;99.90;;;;;;5114960;28;20037;-72
2021/12/24 11:16:02;;;;;;;42.15;13.80;;;9.10;99.90;;;;;;5115045;28;20455;-76
2021/12/24 11:18:30;;;;;;;39.17;13.32;;;9.10;99.90;;;;;;5115158;28;20473;-75
2021/12/24 11:21:02;;;;;;;39.30;12.98;;;9.20;99.90;;;;;;5083957;28;20490;-74
2021/12/24 11:23:30;;;;;;;30.75;11.82;;;9.20;99.90;;;;;;5094046;28;20035;-74
2021/12/24 11:26:18;;;;;;;37.78;12.88;;;9.20;99.90;;;;;;5093640;28;20485;-77
2021/12/24 11:28:44;;;;;;;32.85;12.88;;;9.30;99.90;;;;;;5104633;28;20119;-74
2021/12/24 11:31:22;;;;;;;42.97;12.57;;;9.40;99.90;;;;;;5103553;28;20024;-77
2021/12/24 11:33:49;;;;;;;37.10;12.80;;;9.40;99.90;;;;;;5105531;28;20030;-78
2021/12/24 11:36:17;;;;;;;38.65;12.45;;;9.50;99.90;;;;;;5095548;28;20051;-77
2021/12/24 11:38:46;;;;;;;38.78;12.68;;;9.50;99.90;;;;;;5108868;28;20887;-77
2021/12/24 11:41:14;;;;;;;34.47;12.60;;;9.40;99.90;;;;;;5101436;28;20024;-78
2021/12/24 11:43:43;;;;;;;43.90;12.80;;;9.60;99.90;;;;;;5079191;28;20524;-78
2021/12/24 11:46:13;;;;;;;37.10;12.50;;;9.50;99.90;;;;;;5109303;28;20074;-77
2021/12/24 11:48:39;;;;;;;50.47;13.30;;;9.50;99.90;;;;;;5107784;28;20036;-76
2021/12/24 11:51:13;;;;;;;43.33;12.27;;;9.60;99.90;;;;;;5094005;28;20047;-78
2021/12/24 11:53:39;;;;;;;49.88;15.45;;;9.60;99.90;;;;;;5094399;28;20034;-77
2021/12/24 11:56:14;;;;;;;60.47;14.85;;;9.40;99.90;;;;;;5109164;28;20447;-78
2021/12/24 11:58:45;;;;;;;36.70;13.27;;;9.50;99.90;;;;;;5114964;28;20023;-78
2021/12/24 12:01:11;;;;;;;49.70;13.55;;;9.40;99.90;;;;;;5115067;28;20043;-78
2021/12/24 12:03:40;;;;;;;48.20;12.98;;;9.40;99.90;;;;;;5114699;28;20072;-78
2021/12/24 12:06:29;;;;;;;27.08;11.18;;;9.40;99.90;;;;;;5097873;28;20016;-78
2021/12/24 12:08:56;;;;;;;51.03;12.55;;;9.40;99.90;;;;;;5094652;28;20059;-78
2021/12/24 12:11:27;;;;;;;42.90;12.45;;;9.30;99.90;;;;;;5094141;28;20024;-78
2021/12/24 12:14:14;;;;;;;38.03;12.13;;;9.30;99.90;;;;;;5097054;28;20019;-77
2021/12/24 12:16:39;;;;;;;37.95;11.13;;;9.30;99.90;;;;;;5074282;28;20462;-77
2021/12/24 12:19:59;;;;;;;36.92;11.00;;;9.30;99.90;;;;;;5073603;28;20048;-78
2021/12/24 12:22:33;;;;;;;36.08;11.60;;;9.30;99.90;;;;;;5067145;28;20044;-78
2021/12/24 12:25:06;;;;;;;28.95;11.90;;;9.30;99.90;;;;;;5109871;28;20146;-78
2021/12/24 12:27:53;;;;;;;47.92;12.68;;;9.30;99.90;;;;;;5114474;28;20016;-78
2021/12/24 12:30:39;;;;;;;48.30;13.07;;;9.30;99.90;;;;;;5114449;28;20023;-77
2021/12/24 12:33:22;;;;;;;40.38;11.32;;;9.30;99.90;;;;;;5114056;28;20023;-78
2021/12/24 12:35:50;;;;;;;43.78;11.55;;;9.30;99.90;;;;;;5095741;28;20024;-77
2021/12/24 12:38:22;;;;;;;41.53;12.20;;;9.30;99.90;;;;;;5113823;28;20604;-77
2021/12/24 12:40:47;;;;;;;36.53;11.67;;;9.30;99.90;;;;;;5113808;28;20227;-77
2021/12/24 12:43:14;;;;;;;42.70;12.70;;;9.30;99.90;;;;;;5113609;28;20782;-78
2021/12/24 12:45:41;;;;;;;47.97;12.63;;;9.20;99.90;;;;;;5113604;28;20099;-77
2021/12/24 12:48:09;;;;;;;39.80;12.18;;;9.20;99.90;;;;;;5113343;28;20046;-77
2021/12/24 12:50:38;;;;;;;35.20;13.10;;;9.20;99.90;;;;;;5098690;28;20039;-78
2021/12/24 12:53:26;;;;;;;42.17;14.02;;;9.10;99.90;;;;;;5075188;28;20055;-78
2021/12/24 12:56:16;;;;;;;44.55;16.08;;;9.10;99.90;;;;;;5093548;28;20080;-78
2021/12/24 12:58:45;;;;;;;43.45;15.75;;;9.10;99.90;;;;;;5094543;28;20024;-78
2021/12/24 13:01:18;;;;;;;33.55;14.90;;;9.10;99.90;;;;;;5113850;28;20059;-78
2021/12/24 13:03:55;;;;;;;47.05;16.08;;;9.10;99.90;;;;;;5113452;28;20015;-79
2021/12/24 13:06:45;;;;;;;43.28;17.08;;;9.10;99.90;;;;;;5095537;28;20398;-78
2021/12/24 13:09:13;;;;;;;58.08;17.85;;;9.10;99.90;;;;;;5083734;28;20500;-79
2021/12/24 13:11:41;;;;;;;41.60;17.02;;;9.10;99.90;;;;;;5093659;28;20472;-78
2021/12/24 13:14:09;;;;;;;47.03;17.77;;;9.10;99.90;;;;;;5093389;28;20359;-79
2021/12/24 13:16:43;;;;;;;45.25;17.02;;;9.10;99.90;;;;;;5075261;28;20039;-78
2021/12/24 13:24:58;;;;;;;50.47;20.67;;;9.10;99.90;;;;;;5061515;28;20044;-79
2021/12/24 13:27:31;;;;;;;55.65;20.80;;;9.00;99.90;;;;;;5065033;28;20055;-79
2021/12/24 13:30:27;;;;;;;62.28;21.42;;;9.10;99.90;;;;;;5070741;28;20021;-79
2021/12/24 13:33:07;;;;;;;52.88;19.25;;;9.00;99.90;;;;;;5058913;28;20048;-79
2021/12/24 13:35:47;;;;;;;58.47;20.52;;;9.00;99.90;;;;;;5074622;28;20520;-79
2021/12/24 13:38:26;;;;;;;43.00;19.20;;;9.10;99.90;;;;;;5072334;28;20131;-79
2021/12/24 13:40:53;;;;;;;44.70;20.23;;;9.10;99.90;;;;;;5067061;28;20033;-79
2021/12/24 13:43:19;;;;;;;68.28;24.77;;;9.10;99.90;;;;;;5057595;28;20031;-79
2021/12/24 13:45:52;;;;;;;44.67;20.15;;;9.10;99.90;;;;;;5054902;28;20120;-79
2021/12/24 13:48:25;;;;;;;;;;;9.10;99.90;;;;;;5054800;28;20044;-79
2021/12/24 13:56:39;;;;;;;47.00;19.33;;;9.10;99.90;;;;;;5074641;28;20039;-79
2021/12/24 13:59:05;;;;;;;49.60;21.58;;;9.00;99.90;;;;;;5057713;28;20021;-80
2021/12/24 14:01:32;;;;;;;50.95;22.30;;;9.00;99.90;;;;;;5095323;28;20108;-80
2021/12/24 14:04:00;;;;;;;50.80;21.98;;;9.00;99.90;;;;;;5116515;28;20099;-80
2021/12/24 14:06:34;;;;;;;57.67;22.95;;;9.00;99.90;;;;;;5099111;28;20016;-79
2021/12/24 14:09:11;;;;;;;41.42;19.70;;;9.00;99.90;;;;;;5102192;28;20470;-82
2021/12/24 14:11:37;;;;;;;54.83;21.42;;;9.00;99.90;;;;;;5076763;28;20545;-81
2021/12/24 14:14:10;;;;;;;45.03;19.65;;;9.00;99.90;;;;;;5076393;28;20029;-81
2021/12/24 14:19:16;;;;;;;43.83;19.92;;;8.90;99.90;;;;;;5117152;28;20052;-80
2021/12/24 14:21:51;;;;;;;43.35;19.23;;;8.90;99.90;;;;;;5098282;28;20024;-79
2021/12/24 14:24:20;;;;;;;41.55;17.23;;;9.00;99.90;;;;;;5103832;28;20030;-80
2021/12/24 14:27:07;;;;;;;40.78;18.05;;;8.90;99.90;;;;;;5110372;28;20023;-75
2021/12/24 14:29:44;;;;;;;56.00;20.35;;;8.90;99.90;;;;;;5084302;28;20109;-73
2021/12/24 14:32:26;;;;;;;51.97;19.38;;;8.90;99.90;;;;;;5098363;28;20023;-75
2021/12/24 14:34:53;;;;;;;;;;;8.90;99.90;;;;;;5115068;28;20343;-79
2021/12/24 14:37:21;;;;;;;38.47;16.58;;;8.90;99.90;;;;;;5116868;28;19943;-75
2021/12/24 14:39:58;;;;;;;30.70;14.30;;;8.90;99.90;;;;;;5097023;28;20114;-73
2021/12/24 14:42:57;;;;;;;29.60;14.77;;;8.90;99.90;;;;;;5115698;28;20077;-75
2021/12/24 14:45:36;;;;;;;37.70;14.18;;;8.90;99.90;;;;;;5022475;28;20129;-74
2021/12/24 14:48:10;;;;;;;40.63;15.15;;;9.00;99.90;;;;;;5032122;28;20026;-75
2021/12/24 14:50:50;;;;;;;22.63;10.18;;;9.00;99.90;;;;;;5019810;28;20076;-75
2021/12/24 14:53:18;;;;;;;11.50;5.75;;;8.90;99.90;;;;;;5012798;28;20025;-75
2021/12/24 14:55:50;;;;;;;6.47;4.10;;;8.80;99.90;;;;;;5012738;28;20133;-77
2021/12/24 14:58:34;;;;;;;5.75;3.72;;;8.70;99.90;;;;;;5012969;28;20034;-75
2021/12/24 15:01:22;;;;;;;7.93;3.63;;;8.60;99.90;;;;;;5012783;28;20105;-72
2021/12/24 15:03:57;;;;;;;8.32;3.72;;;8.60;99.90;;;;;;5001531;28;20034;-77
2021/12/24 15:06:25;;;;;;;10.95;5.03;;;8.60;99.90;;;;;;4995331;28;20516;-73
2021/12/24 15:08:52;;;;;;;10.48;6.03;;;8.60;99.90;;;;;;5011975;28;20498;-74